RJNS(METAR)
05/16 21:00
METAR RJNS 161200Z 32003KT 9999 FEW000 BKN010 BKN025 18/18 Q1012 RMK
1ST000 6CU010 7SC025 A2989=
戻る
トップページへ戻る
IMOC Co,.Ltd.